createdAt,value
2023-04-17T00:01:00.402Z,11.00
2023-04-17T00:03:28.322Z,10.50
2023-04-17T00:05:56.693Z,10.40
2023-04-17T00:08:24.476Z,10.90
2023-04-17T00:11:00.674Z,10.70
2023-04-17T00:13:34.805Z,10.70
2023-04-17T00:16:02.900Z,10.50
2023-04-17T00:18:30.869Z,10.60
2023-04-17T00:20:58.667Z,10.40
2023-04-17T00:23:27.313Z,10.40
2023-04-17T00:25:56.355Z,10.60
2023-04-17T00:28:24.670Z,10.70
2023-04-17T00:30:52.429Z,10.50
2023-04-17T00:33:20.427Z,10.40
2023-04-17T00:35:48.141Z,10.70
2023-04-17T00:38:15.950Z,10.30
2023-04-17T00:40:45.325Z,9.90
2023-04-17T00:43:14.469Z,10.40
2023-04-17T00:45:42.823Z,10.20
2023-04-17T00:48:13.137Z,10.60
2023-04-17T00:50:40.944Z,10.50
2023-04-17T00:53:08.712Z,10.40
2023-04-17T00:55:38.916Z,10.50
2023-04-17T00:58:07.106Z,10.30
2023-04-17T01:00:36.545Z,10.30
2023-04-17T01:03:05.121Z,10.20
2023-04-17T01:05:35.399Z,10.60
2023-04-17T01:08:03.188Z,10.40
2023-04-17T01:10:30.968Z,10.60
2023-04-17T01:13:05.271Z,10.50
2023-04-17T01:15:33.168Z,10.50
2023-04-17T01:18:03.044Z,10.60
2023-04-17T01:20:31.308Z,10.30
2023-04-17T01:22:59.538Z,10.30
2023-04-17T01:25:29.300Z,10.60
2023-04-17T01:27:57.385Z,10.10
2023-04-17T01:30:25.714Z,10.20
2023-04-17T01:32:55.053Z,10.30
2023-04-17T01:35:23.172Z,10.20
2023-04-17T01:37:51.168Z,10.60
2023-04-17T01:40:19.109Z,10.20
2023-04-17T01:42:48.243Z,10.50
2023-04-17T01:45:16.059Z,10.10
2023-04-17T01:47:43.881Z,10.20
2023-04-17T01:50:12.922Z,10.30
2023-04-17T01:52:40.751Z,10.40
2023-04-17T01:55:09.064Z,10.30
2023-04-17T01:57:36.807Z,10.00
2023-04-17T02:00:08.146Z,10.20
2023-04-17T02:02:36.025Z,10.00
2023-04-17T02:05:04.057Z,10.30
2023-04-17T02:07:31.797Z,10.20
2023-04-17T02:09:59.550Z,10.40
2023-04-17T02:12:27.252Z,10.20
2023-04-17T02:14:55.063Z,10.40
2023-04-17T02:17:24.220Z,10.30
2023-04-17T02:19:52.059Z,10.10
2023-04-17T02:22:19.786Z,10.40
2023-04-17T02:24:47.552Z,10.20
2023-04-17T02:27:15.558Z,10.30
2023-04-17T02:29:43.302Z,10.00
2023-04-17T02:32:11.247Z,10.00
2023-04-17T02:34:40.645Z,10.10
2023-04-17T02:37:08.425Z,10.30
2023-04-17T02:39:36.178Z,10.30
2023-04-17T02:42:04.080Z,10.10
2023-04-17T02:44:31.921Z,10.30
2023-04-17T02:46:59.670Z,10.00
2023-04-17T02:49:27.397Z,10.30
2023-04-17T02:51:56.656Z,10.00
2023-04-17T02:54:24.384Z,10.20
2023-04-17T02:56:53.250Z,10.20
2023-04-17T02:59:20.978Z,10.20
2023-04-17T03:01:48.767Z,9.90
2023-04-17T03:04:16.606Z,9.90
2023-04-17T03:06:44.392Z,9.90
2023-04-17T03:09:14.728Z,10.10
2023-04-17T03:11:42.440Z,9.80
2023-04-17T03:14:10.265Z,9.40
2023-04-17T03:16:37.960Z,9.90
2023-04-17T03:19:05.727Z,9.80
2023-04-17T03:21:33.542Z,9.70
2023-04-17T03:24:01.512Z,9.90
2023-04-17T03:26:30.653Z,9.60
2023-04-17T03:28:58.405Z,10.00
2023-04-17T03:31:27.833Z,9.60
2023-04-17T03:33:55.703Z,9.60
2023-04-17T03:36:23.469Z,9.80
2023-04-17T03:38:51.241Z,9.40
2023-04-17T03:41:18.934Z,9.60
2023-04-17T03:43:48.022Z,9.90
2023-04-17T03:46:16.101Z,9.40
2023-04-17T03:48:43.889Z,9.80
2023-04-17T03:51:11.604Z,9.60
2023-04-17T03:53:39.671Z,9.50
2023-04-17T03:56:07.671Z,9.30
2023-04-17T03:58:35.485Z,9.50
2023-04-17T04:01:04.619Z,9.60
2023-04-17T04:03:32.686Z,9.30
2023-04-17T04:06:00.589Z,9.50
2023-04-17T04:08:28.272Z,9.30
2023-04-17T04:10:56.083Z,9.20
2023-04-17T04:13:23.849Z,9.20
2023-04-17T04:15:51.709Z,9.10
2023-04-17T04:18:20.818Z,9.50
2023-04-17T04:20:48.551Z,9.50
2023-04-17T04:23:16.935Z,9.10
2023-04-17T04:25:44.713Z,9.30
2023-04-17T04:28:13.211Z,9.10
2023-04-17T04:30:40.963Z,9.20
2023-04-17T04:33:09.261Z,9.50
2023-04-17T04:35:38.635Z,9.60
2023-04-17T04:38:06.379Z,9.60
2023-04-17T04:40:35.905Z,9.40
2023-04-17T04:43:04.298Z,9.40
2023-04-17T04:45:32.033Z,9.60
2023-04-17T04:47:59.840Z,9.80
2023-04-17T04:50:27.730Z,9.40
2023-04-17T04:52:56.779Z,9.60
2023-04-17T04:55:24.599Z,9.70
2023-04-17T04:57:54.031Z,9.80
2023-04-17T05:00:22.002Z,10.00
2023-04-17T05:02:49.902Z,9.70
2023-04-17T05:05:17.893Z,10.20
2023-04-17T05:07:45.971Z,9.70
2023-04-17T05:10:15.160Z,9.90
2023-04-17T05:12:44.260Z,9.70
2023-04-17T05:15:12.945Z,10.10
2023-04-17T05:17:41.737Z,10.00
2023-04-17T05:20:12.220Z,10.10
2023-04-17T05:22:39.996Z,10.00
2023-04-17T05:25:08.413Z,10.40
2023-04-17T05:27:37.680Z,10.20
2023-04-17T05:30:06.353Z,10.00
2023-04-17T05:32:35.025Z,10.10
2023-04-17T05:35:02.876Z,10.20
2023-04-17T05:37:30.599Z,10.10
2023-04-17T05:40:00.054Z,10.40
2023-04-17T05:42:27.846Z,10.30
2023-04-17T05:44:56.886Z,10.30
2023-04-17T05:47:25.234Z,10.40
2023-04-17T05:49:57.379Z,10.30
2023-04-17T05:52:25.400Z,10.40
2023-04-17T05:54:53.198Z,10.30
2023-04-17T05:57:20.897Z,10.30
2023-04-17T05:59:49.032Z,10.70
2023-04-17T06:02:18.602Z,10.30
2023-04-17T06:04:47.281Z,10.50
2023-04-17T06:07:15.205Z,10.60
2023-04-17T06:09:43.025Z,10.50
2023-04-17T06:12:15.881Z,10.60
2023-04-17T06:14:44.276Z,10.70
2023-04-17T06:17:12.522Z,11.00
2023-04-17T06:19:41.701Z,11.00
2023-04-17T06:22:09.545Z,10.90
2023-04-17T06:24:37.985Z,11.30
2023-04-17T06:27:05.776Z,11.30
2023-04-17T06:29:33.520Z,11.30
2023-04-17T06:32:01.263Z,11.90
2023-04-17T06:34:29.030Z,11.80
2023-04-17T06:36:58.964Z,11.90
2023-04-17T06:39:27.327Z,12.10
2023-04-17T06:41:56.069Z,12.10
2023-04-17T06:44:23.950Z,12.30
2023-04-17T06:46:53.672Z,12.10
2023-04-17T06:49:21.804Z,12.10
2023-04-17T06:51:49.600Z,12.10
2023-04-17T06:54:18.880Z,12.00
2023-04-17T06:56:46.654Z,12.10
2023-04-17T06:59:14.471Z,12.60
2023-04-17T07:01:42.343Z,12.50
2023-04-17T07:04:10.810Z,13.40
2023-04-17T07:06:39.504Z,14.10
2023-04-17T07:09:07.291Z,14.50
2023-04-17T07:11:36.377Z,14.60
2023-04-17T07:14:04.173Z,15.50
2023-04-17T07:16:32.013Z,16.60
2023-04-17T07:18:59.832Z,16.50
2023-04-17T07:21:28.060Z,15.80
2023-04-17T07:23:55.855Z,15.40
2023-04-17T07:26:23.608Z,15.10
2023-04-17T07:28:52.708Z,14.60
2023-04-17T07:31:22.095Z,15.00
2023-04-17T07:33:50.462Z,15.00
2023-04-17T07:36:18.614Z,14.90
2023-04-17T07:38:46.333Z,15.20
2023-04-17T07:41:14.060Z,15.50
2023-04-17T07:43:42.015Z,15.70
2023-04-17T07:46:11.063Z,16.30
2023-04-17T07:48:38.881Z,16.40
2023-04-17T07:51:07.572Z,17.00
2023-04-17T07:53:37.272Z,16.90
2023-04-17T07:56:06.230Z,17.60
2023-04-17T07:58:35.568Z,18.60
2023-04-17T08:01:06.542Z,18.70
2023-04-17T08:03:41.422Z,18.60
2023-04-17T08:06:11.576Z,17.30
2023-04-17T08:08:41.348Z,16.90
2023-04-17T08:11:10.998Z,16.40
2023-04-17T08:13:40.799Z,16.30
2023-04-17T08:16:11.085Z,16.30
2023-04-17T08:18:42.600Z,16.00
2023-04-17T08:21:12.352Z,16.30
2023-04-17T08:23:42.543Z,16.10
2023-04-17T08:26:12.813Z,16.50
2023-04-17T08:28:42.569Z,16.60
2023-04-17T08:31:11.971Z,16.50
2023-04-17T08:33:43.305Z,16.90
2023-04-17T08:36:12.926Z,17.40
2023-04-17T08:38:43.876Z,17.70
2023-04-17T08:41:20.607Z,16.70
2023-04-17T08:43:52.371Z,17.20
2023-04-17T08:46:24.485Z,17.10
2023-04-17T08:48:55.946Z,16.90
2023-04-17T08:51:28.948Z,16.70
2023-04-17T08:53:58.801Z,16.50
2023-04-17T08:56:30.461Z,16.20
2023-04-17T08:58:58.327Z,16.80
2023-04-17T09:01:26.219Z,17.10
2023-04-17T09:03:56.964Z,17.50
2023-04-17T09:06:24.931Z,18.70
2023-04-17T09:08:58.128Z,19.70
2023-04-17T09:11:26.264Z,19.60
2023-04-17T09:13:54.315Z,19.20
2023-04-17T09:16:24.297Z,18.90
2023-04-17T09:18:52.069Z,19.10
2023-04-17T09:21:21.124Z,19.00
2023-04-17T09:23:51.701Z,19.20
2023-04-17T09:26:22.859Z,19.20
2023-04-17T09:29:07.485Z,18.70
2023-04-17T09:31:36.197Z,18.30
2023-04-17T09:34:05.663Z,17.70
2023-04-17T09:36:38.135Z,17.30
2023-04-17T09:39:17.025Z,17.60
2023-04-17T09:41:44.766Z,17.90
2023-04-17T09:44:13.028Z,17.90
2023-04-17T09:46:45.812Z,17.50
2023-04-17T09:49:18.860Z,17.10
2023-04-17T09:51:49.193Z,17.30
2023-04-17T09:54:18.099Z,16.40
2023-04-17T09:56:49.491Z,16.50
2023-04-17T09:59:17.546Z,16.20
2023-04-17T10:01:46.518Z,16.10
2023-04-17T10:04:14.970Z,15.80
2023-04-17T10:06:44.190Z,15.50
2023-04-17T10:09:13.315Z,15.30
2023-04-17T10:11:45.611Z,15.00
2023-04-17T10:14:25.425Z,14.90
2023-04-17T10:16:53.805Z,14.80
2023-04-17T10:19:28.605Z,14.50
2023-04-17T10:22:30.030Z,14.40
2023-04-17T10:25:21.132Z,14.70
2023-04-17T10:27:58.131Z,15.00
2023-04-17T10:30:46.474Z,15.40
2023-04-17T10:33:30.756Z,15.20
2023-04-17T10:35:58.522Z,15.60
2023-04-17T10:38:36.631Z,15.90
2023-04-17T10:41:09.300Z,15.80
2023-04-17T10:43:41.499Z,15.90
2023-04-17T10:46:12.137Z,15.90
2023-04-17T10:48:42.212Z,15.90
2023-04-17T10:51:41.689Z,16.30
2023-04-17T10:54:13.503Z,16.20
2023-04-17T10:56:45.965Z,16.20
2023-04-17T10:59:15.741Z,16.40
2023-04-17T11:02:00.562Z,16.70
2023-04-17T11:04:31.539Z,16.90
2023-04-17T11:06:59.546Z,17.20
2023-04-17T11:09:29.576Z,16.90
2023-04-17T11:12:02.678Z,16.80
2023-04-17T11:14:30.641Z,17.10
2023-04-17T11:16:58.544Z,16.80
2023-04-17T11:19:27.048Z,16.80
2023-04-17T11:21:57.153Z,16.80
2023-04-17T11:24:25.505Z,17.00
2023-04-17T11:26:53.816Z,16.90
2023-04-17T11:29:24.473Z,17.00
2023-04-17T11:31:53.844Z,17.30
2023-04-17T11:34:21.923Z,17.60
2023-04-17T11:36:50.313Z,17.60
2023-04-17T11:39:19.135Z,17.90
2023-04-17T11:41:47.380Z,17.90
2023-04-17T11:44:15.833Z,17.60
2023-04-17T11:46:50.371Z,17.60
2023-04-17T11:49:24.360Z,17.30
2023-04-17T11:51:52.592Z,17.70
2023-04-17T11:54:27.395Z,17.60
2023-04-17T11:57:02.902Z,17.40
2023-04-17T11:59:32.247Z,17.60
2023-04-17T12:02:02.331Z,17.30
2023-04-17T12:04:33.451Z,17.30
2023-04-17T12:07:01.783Z,17.20
2023-04-17T12:09:31.782Z,17.20
2023-04-17T12:11:59.928Z,17.00
2023-04-17T12:14:27.666Z,16.80
2023-04-17T12:16:55.436Z,16.80
2023-04-17T12:19:26.527Z,16.80
2023-04-17T12:21:54.328Z,16.40
2023-04-17T12:24:24.193Z,16.30
2023-04-17T12:26:52.887Z,16.10
2023-04-17T12:29:29.588Z,16.00
2023-04-17T12:32:04.822Z,15.90
2023-04-17T12:34:34.495Z,16.10
2023-04-17T12:37:02.308Z,16.20
2023-04-17T12:39:30.050Z,15.70
2023-04-17T12:41:58.032Z,15.80
2023-04-17T12:44:25.819Z,16.00
2023-04-17T12:46:54.941Z,16.40
2023-04-17T12:49:23.656Z,16.50
2023-04-17T12:51:52.956Z,16.30
2023-04-17T12:54:20.813Z,16.50
2023-04-17T12:56:48.714Z,16.80
2023-04-17T12:59:16.923Z,16.60
2023-04-17T13:01:44.756Z,16.30
2023-04-17T13:04:13.029Z,16.00
2023-04-17T13:06:41.231Z,16.30
2023-04-17T13:09:10.927Z,16.30
2023-04-17T13:11:38.951Z,16.20
2023-04-17T13:14:07.383Z,16.50
2023-04-17T13:16:35.331Z,16.40
2023-04-17T13:19:03.076Z,16.10
2023-04-17T13:21:30.872Z,16.00
2023-04-17T13:23:58.573Z,16.30
2023-04-17T13:26:27.724Z,16.30
2023-04-17T13:28:55.452Z,16.20
2023-04-17T13:31:24.585Z,16.20
2023-04-17T13:33:52.477Z,16.20
2023-04-17T13:36:20.361Z,16.40
2023-04-17T13:38:48.086Z,16.50
2023-04-17T13:41:15.856Z,17.00
2023-04-17T13:43:45.145Z,16.60
2023-04-17T13:46:16.097Z,16.60
2023-04-17T13:48:44.097Z,16.40
2023-04-17T13:51:11.993Z,16.40
2023-04-17T13:53:39.789Z,16.20
2023-04-17T13:56:07.678Z,16.10
2023-04-17T13:58:35.804Z,16.10
2023-04-17T14:01:04.913Z,16.30
2023-04-17T14:03:32.764Z,16.10
2023-04-17T14:06:00.586Z,15.70
2023-04-17T14:08:28.335Z,15.70
2023-04-17T14:10:56.100Z,16.00
2023-04-17T14:13:23.851Z,16.00
2023-04-17T14:15:53.514Z,15.80
2023-04-17T14:18:24.579Z,15.90
2023-04-17T14:20:53.910Z,15.80
2023-04-17T14:23:21.681Z,15.80
2023-04-17T14:25:49.476Z,16.00
2023-04-17T14:28:18.419Z,15.70
2023-04-17T14:30:46.259Z,15.60
2023-04-17T14:33:14.183Z,15.90
2023-04-17T14:35:43.339Z,15.20
2023-04-17T14:38:11.194Z,15.50
2023-04-17T14:40:38.924Z,15.20
2023-04-17T14:43:07.038Z,14.90
2023-04-17T14:45:36.568Z,15.20
2023-04-17T14:48:04.647Z,14.80
2023-04-17T14:50:32.435Z,14.80
2023-04-17T14:53:01.628Z,14.90
2023-04-17T14:55:29.974Z,14.80
2023-04-17T14:57:57.989Z,15.00
2023-04-17T15:00:25.810Z,14.30
2023-04-17T15:02:53.674Z,14.90
2023-04-17T15:05:22.392Z,15.00
2023-04-17T15:07:50.262Z,15.00
2023-04-17T15:10:19.316Z,15.20
2023-04-17T15:12:47.110Z,14.80
2023-04-17T15:15:14.970Z,15.30
2023-04-17T15:17:42.832Z,15.20
2023-04-17T15:20:10.908Z,15.30
2023-04-17T15:22:38.645Z,15.20
2023-04-17T15:25:07.066Z,15.50
2023-04-17T15:27:36.167Z,15.10
2023-04-17T15:30:06.516Z,15.20
2023-04-17T15:32:34.274Z,15.10
2023-04-17T15:35:01.969Z,15.30
2023-04-17T15:37:29.730Z,14.90
2023-04-17T15:39:57.549Z,14.90
2023-04-17T15:42:27.021Z,15.00
2023-04-17T15:44:56.137Z,14.60
2023-04-17T15:47:23.944Z,14.80
2023-04-17T15:49:51.664Z,14.60
2023-04-17T15:52:19.441Z,14.70
2023-04-17T15:54:47.228Z,14.40
2023-04-17T15:57:15.005Z,14.80
2023-04-17T15:59:42.790Z,14.70
2023-04-17T16:02:13.750Z,14.60
2023-04-17T16:04:43.431Z,14.60
2023-04-17T16:07:13.051Z,14.70
2023-04-17T16:09:41.325Z,14.60
2023-04-17T16:12:10.476Z,14.40
2023-04-17T16:14:38.816Z,14.30
2023-04-17T16:17:06.791Z,14.30
2023-04-17T16:19:36.259Z,14.70
2023-04-17T16:22:04.059Z,14.60
2023-04-17T16:24:31.847Z,14.60
2023-04-17T16:27:01.408Z,14.40
2023-04-17T16:29:29.277Z,14.20
2023-04-17T16:31:57.399Z,13.70
2023-04-17T16:34:25.183Z,14.30
2023-04-17T16:36:54.226Z,14.40
2023-04-17T16:39:21.979Z,14.20
2023-04-17T16:41:52.044Z,14.30
2023-04-17T16:44:19.785Z,14.30
2023-04-17T16:47:09.540Z,14.40
2023-04-17T16:49:35.279Z,14.30
2023-04-17T16:52:04.470Z,14.10
2023-04-17T16:54:32.465Z,13.60
2023-04-17T16:57:00.602Z,14.00
2023-04-17T16:59:28.340Z,14.00
2023-04-17T17:01:56.259Z,14.10
2023-04-17T17:04:24.045Z,14.10
2023-04-17T17:06:51.846Z,14.20
2023-04-17T17:09:21.041Z,14.10
2023-04-17T17:11:48.918Z,13.80
2023-04-17T17:14:16.953Z,13.90
2023-04-17T17:16:44.755Z,13.90
2023-04-17T17:19:12.739Z,14.00
2023-04-17T17:21:40.612Z,13.70
2023-04-17T17:24:08.488Z,13.90
2023-04-17T17:26:37.695Z,13.70
2023-04-17T17:29:05.637Z,13.80
2023-04-17T17:31:34.498Z,13.40
2023-04-17T17:34:16.730Z,13.20
2023-04-17T17:36:50.343Z,13.60
2023-04-17T17:39:18.107Z,12.80
2023-04-17T17:41:47.608Z,13.20
2023-04-17T17:44:15.654Z,13.20
2023-04-17T17:46:43.629Z,13.40
2023-04-17T17:49:11.665Z,13.00
2023-04-17T17:51:39.413Z,13.50
2023-04-17T17:54:07.798Z,13.20
2023-04-17T17:56:35.829Z,13.20
2023-04-17T17:59:04.980Z,13.00
2023-04-17T18:01:33.130Z,13.10
2023-04-17T18:04:01.077Z,13.10
2023-04-17T18:06:29.017Z,13.00
2023-04-17T18:08:58.550Z,12.90
2023-04-17T18:11:27.101Z,12.60
2023-04-17T18:13:54.781Z,13.10
2023-04-17T18:16:24.826Z,13.00
2023-04-17T18:18:52.765Z,12.90
2023-04-17T18:21:20.468Z,13.10
2023-04-17T18:23:48.306Z,12.90
2023-04-17T18:26:16.191Z,12.50
2023-04-17T18:28:43.945Z,13.00
2023-04-17T18:31:12.413Z,12.70
2023-04-17T18:33:41.560Z,12.90
2023-04-17T18:36:09.901Z,12.90
2023-04-17T18:38:37.625Z,12.90
2023-04-17T18:41:05.398Z,12.70
2023-04-17T18:43:33.185Z,12.80
2023-04-17T18:46:04.367Z,12.70
2023-04-17T18:48:32.081Z,12.70
2023-04-17T18:51:09.469Z,12.70
2023-04-17T18:53:37.307Z,12.70
2023-04-17T18:56:06.507Z,12.80
2023-04-17T18:58:34.317Z,12.50
2023-04-17T19:01:02.199Z,12.60
2023-04-17T19:03:30.142Z,12.50
2023-04-17T19:05:57.914Z,12.60
2023-04-17T19:08:27.050Z,12.60
2023-04-17T19:10:55.083Z,12.60
2023-04-17T19:13:22.836Z,12.70
2023-04-17T19:15:50.743Z,12.80
2023-04-17T19:18:18.641Z,12.80
2023-04-17T19:20:47.776Z,12.60
2023-04-17T19:23:15.759Z,12.40
2023-04-17T19:25:44.910Z,12.50
2023-04-17T19:28:13.315Z,12.70
2023-04-17T19:30:41.152Z,12.70
2023-04-17T19:33:09.296Z,12.40
2023-04-17T19:35:37.078Z,12.60
2023-04-17T19:38:04.860Z,12.50
2023-04-17T19:40:32.591Z,12.50
2023-04-17T19:43:03.334Z,12.40
2023-04-17T19:45:33.029Z,12.70
2023-04-17T19:48:01.269Z,12.70
2023-04-17T19:50:30.549Z,12.70
2023-04-17T19:52:59.144Z,12.70
2023-04-17T19:55:26.919Z,12.80
2023-04-17T19:57:56.840Z,12.60
2023-04-17T20:00:26.763Z,12.70
2023-04-17T20:02:54.621Z,12.70
2023-04-17T20:05:22.559Z,12.70
2023-04-17T20:07:50.499Z,12.60
2023-04-17T20:10:18.798Z,12.30
2023-04-17T20:12:47.003Z,12.50
2023-04-17T20:15:19.646Z,12.50
2023-04-17T20:17:48.917Z,12.80
2023-04-17T20:20:16.663Z,12.70
2023-04-17T20:22:44.569Z,12.70
2023-04-17T20:25:12.419Z,12.70
2023-04-17T20:27:40.250Z,12.50
2023-04-17T20:30:09.158Z,12.60
2023-04-17T20:32:36.988Z,12.90
2023-04-17T20:35:06.918Z,12.60
2023-04-17T20:37:34.785Z,12.70
2023-04-17T20:40:02.619Z,12.60
2023-04-17T20:42:30.472Z,12.80
2023-04-17T20:44:59.522Z,12.60
2023-04-17T20:47:27.290Z,12.60
2023-04-17T20:49:55.116Z,12.40
2023-04-17T20:52:24.276Z,12.60
2023-04-17T20:54:52.081Z,12.70
2023-04-17T20:57:19.889Z,12.60
2023-04-17T20:59:47.733Z,12.60
2023-04-17T21:02:16.234Z,12.40
2023-04-17T21:04:44.978Z,12.40
2023-04-17T21:07:12.855Z,12.50
2023-04-17T21:09:41.966Z,12.70
2023-04-17T21:12:10.142Z,12.40
2023-04-17T21:14:38.072Z,12.50
2023-04-17T21:17:05.863Z,12.30
2023-04-17T21:19:36.614Z,12.40
2023-04-17T21:22:04.606Z,12.30
2023-04-17T21:24:32.407Z,12.10
2023-04-17T21:27:02.405Z,12.20
2023-04-17T21:29:30.346Z,12.10
2023-04-17T21:31:58.227Z,12.40
2023-04-17T21:34:26.154Z,11.70
2023-04-17T21:36:54.372Z,12.40
2023-04-17T21:39:22.206Z,12.50
2023-04-17T21:41:49.916Z,12.50
2023-04-17T21:44:19.002Z,12.20
2023-04-17T21:46:46.849Z,12.20
2023-04-17T21:49:14.586Z,12.20
2023-04-17T21:51:42.340Z,12.30
2023-04-17T21:54:10.621Z,12.10
2023-04-17T21:56:38.481Z,12.00
2023-04-17T21:59:06.266Z,12.20
2023-04-17T22:01:35.490Z,12.30
2023-04-17T22:04:03.371Z,12.20
2023-04-17T22:06:31.165Z,11.90
2023-04-17T22:08:58.903Z,12.00
2023-04-17T22:11:26.639Z,12.30
2023-04-17T22:13:54.349Z,11.80
2023-04-17T22:16:22.078Z,12.00
2023-04-17T22:18:51.214Z,12.00
2023-04-17T22:21:19.010Z,12.00
2023-04-17T22:23:46.812Z,12.00
2023-04-17T22:26:14.597Z,12.00
2023-04-17T22:28:42.348Z,12.00
2023-04-17T22:31:10.862Z,11.80
2023-04-17T22:33:38.631Z,11.80
2023-04-17T22:36:08.248Z,12.00
2023-04-17T22:38:36.108Z,11.90
2023-04-17T22:41:04.236Z,11.90
2023-04-17T22:43:32.139Z,12.00
2023-04-17T22:45:59.900Z,11.90
2023-04-17T22:48:28.275Z,11.90
2023-04-17T22:50:56.630Z,11.90
2023-04-17T22:53:26.055Z,11.80
2023-04-17T22:56:03.232Z,11.90
2023-04-17T22:58:33.163Z,11.70
2023-04-17T23:01:01.347Z,11.50
2023-04-17T23:03:29.084Z,11.70
2023-04-17T23:05:57.345Z,11.70
2023-04-17T23:08:26.410Z,11.90
2023-04-17T23:10:59.594Z,11.70
2023-04-17T23:13:27.699Z,11.70
2023-04-17T23:15:55.630Z,11.80
2023-04-17T23:18:23.459Z,12.00
2023-04-17T23:20:51.352Z,12.10
2023-04-17T23:23:19.298Z,11.60
2023-04-17T23:25:48.372Z,11.90
2023-04-17T23:28:16.122Z,11.80
2023-04-17T23:30:43.880Z,11.50
2023-04-17T23:33:11.652Z,11.60
2023-04-17T23:35:39.380Z,11.50
2023-04-17T23:38:07.111Z,11.20
2023-04-17T23:40:36.049Z,11.60
2023-04-17T23:43:05.211Z,11.50
2023-04-17T23:45:32.894Z,11.50
2023-04-17T23:48:00.743Z,11.70
2023-04-17T23:50:28.565Z,11.60
2023-04-17T23:52:56.248Z,11.50
2023-04-17T23:55:25.715Z,11.70
2023-04-17T23:57:53.701Z,11.40
